createdAt,value
2023-06-15T00:01:05.834Z,2.50
2023-06-15T00:03:33.398Z,2.27
2023-06-15T00:06:00.839Z,2.30
2023-06-15T00:08:28.269Z,2.50
2023-06-15T00:10:55.617Z,2.20
2023-06-15T00:13:22.779Z,2.30
2023-06-15T00:15:49.925Z,2.37
2023-06-15T00:18:18.637Z,2.47
2023-06-15T00:20:46.456Z,2.40
2023-06-15T00:23:13.767Z,2.40
2023-06-15T00:25:40.875Z,2.23
2023-06-15T00:29:04.094Z,2.53
2023-06-15T00:31:31.352Z,2.37
2023-06-15T00:33:58.642Z,2.30
2023-06-15T00:36:25.842Z,2.40
2023-06-15T00:38:52.992Z,2.13
2023-06-15T00:41:20.174Z,2.00
2023-06-15T00:43:47.331Z,2.00
2023-06-15T00:46:16.068Z,2.40
2023-06-15T00:48:43.450Z,2.40
2023-06-15T00:51:13.174Z,2.00
2023-06-15T00:53:40.384Z,3.00
2023-06-15T00:56:08.191Z,2.37
2023-06-15T00:58:36.828Z,2.20
2023-06-15T01:01:04.347Z,2.20
2023-06-15T01:03:32.361Z,2.60
2023-06-15T01:06:01.085Z,2.87
2023-06-15T01:08:28.949Z,2.30
2023-06-15T01:10:57.404Z,3.20
2023-06-15T01:13:24.684Z,2.07
2023-06-15T01:15:57.547Z,1.87
2023-06-15T01:18:26.970Z,2.40
2023-06-15T01:20:55.010Z,2.47
2023-06-15T01:23:52.002Z,2.27
2023-06-15T01:26:25.141Z,2.30
2023-06-15T01:28:54.104Z,2.70
2023-06-15T01:31:21.530Z,2.20
2023-06-15T01:33:51.877Z,2.53
2023-06-15T01:36:20.763Z,2.40
2023-06-15T01:38:53.435Z,2.67
2023-06-15T01:41:24.218Z,2.53
2023-06-15T01:43:52.832Z,2.57
2023-06-15T01:46:22.673Z,2.67
2023-06-15T01:48:50.958Z,2.33
2023-06-15T01:51:19.887Z,2.77
2023-06-15T01:53:47.200Z,2.17
2023-06-15T01:56:15.806Z,2.57
2023-06-15T01:58:42.957Z,2.33
2023-06-15T02:01:10.079Z,2.20
2023-06-15T02:03:37.324Z,2.53
2023-06-15T02:06:04.474Z,2.33
2023-06-15T02:08:31.710Z,2.20
2023-06-15T02:10:58.927Z,2.27
2023-06-15T02:13:26.154Z,2.30
2023-06-15T02:15:53.314Z,2.40
2023-06-15T02:18:20.540Z,2.67
2023-06-15T02:20:47.775Z,2.37
2023-06-15T02:23:15.074Z,2.53
2023-06-15T02:25:42.304Z,2.60
2023-06-15T02:28:09.520Z,2.53
2023-06-15T02:30:36.670Z,2.80
2023-06-15T02:33:05.409Z,2.53
2023-06-15T02:35:32.691Z,2.37
2023-06-15T02:37:59.852Z,2.30
2023-06-15T02:40:26.936Z,2.50
2023-06-15T02:42:56.191Z,2.00
2023-06-15T02:45:23.540Z,1.90
2023-06-15T02:47:50.780Z,2.27
2023-06-15T02:50:19.061Z,2.40
2023-06-15T02:52:46.856Z,2.00
2023-06-15T02:55:14.702Z,2.40
2023-06-15T02:57:42.756Z,2.27
2023-06-15T03:00:14.929Z,2.60
2023-06-15T03:02:51.363Z,2.67
2023-06-15T03:05:19.636Z,2.40
2023-06-15T03:07:47.616Z,2.97
2023-06-15T03:10:14.852Z,2.60
2023-06-15T03:12:42.034Z,2.53
2023-06-15T03:15:10.602Z,3.07
2023-06-15T03:17:37.822Z,2.47
2023-06-15T03:20:08.891Z,2.33
2023-06-15T03:22:36.428Z,2.60
2023-06-15T03:25:04.178Z,2.50
2023-06-15T03:27:33.775Z,2.47
2023-06-15T03:30:02.693Z,2.83
2023-06-15T03:32:30.398Z,2.30
2023-06-15T03:34:58.534Z,3.00
2023-06-15T03:37:26.083Z,2.80
2023-06-15T03:39:53.238Z,2.40
2023-06-15T03:42:20.576Z,2.37
2023-06-15T03:44:47.852Z,2.80
2023-06-15T03:47:15.489Z,2.83
2023-06-15T03:49:42.735Z,2.93
2023-06-15T03:52:09.920Z,2.50
2023-06-15T03:54:37.162Z,2.40
2023-06-15T03:57:04.671Z,2.67
2023-06-15T03:59:31.924Z,2.50
2023-06-15T04:01:59.316Z,2.33
2023-06-15T04:04:26.425Z,2.30
2023-06-15T04:06:58.887Z,2.93
2023-06-15T04:09:26.039Z,2.77
2023-06-15T04:11:54.358Z,2.73
2023-06-15T04:14:21.531Z,3.03
2023-06-15T04:16:48.685Z,2.73
2023-06-15T04:19:17.123Z,2.63
2023-06-15T04:21:44.900Z,2.83
2023-06-15T04:24:12.202Z,3.80
2023-06-15T04:26:43.017Z,2.70
2023-06-15T04:29:10.616Z,3.10
2023-06-15T04:31:41.163Z,2.50
2023-06-15T04:34:08.999Z,3.03
2023-06-15T04:36:40.196Z,2.47
2023-06-15T04:39:07.397Z,3.00
2023-06-15T04:41:36.372Z,2.60
2023-06-15T04:44:03.619Z,2.30
2023-06-15T04:46:30.996Z,2.30
2023-06-15T04:48:58.546Z,2.20
2023-06-15T04:51:27.584Z,2.23
2023-06-15T04:53:55.813Z,2.20
2023-06-15T04:56:23.850Z,2.10
2023-06-15T04:58:51.521Z,2.30
2023-06-15T05:01:18.661Z,2.57
2023-06-15T05:03:46.773Z,2.40
2023-06-15T05:06:14.238Z,2.40
2023-06-15T05:08:41.422Z,2.40
2023-06-15T05:11:08.594Z,2.03
2023-06-15T05:13:35.816Z,2.63
2023-06-15T05:16:03.106Z,2.20
2023-06-15T05:18:30.294Z,2.33
2023-06-15T05:20:57.665Z,2.43
2023-06-15T05:23:24.810Z,2.00
2023-06-15T05:25:52.708Z,2.30
2023-06-15T05:28:20.620Z,2.10
2023-06-15T05:30:47.780Z,2.33
2023-06-15T05:33:15.082Z,2.70
2023-06-15T05:35:42.322Z,2.50
2023-06-15T05:38:10.484Z,2.20
2023-06-15T05:40:37.859Z,1.93
2023-06-15T05:43:05.264Z,2.17
2023-06-15T05:45:32.406Z,2.07
2023-06-15T05:47:59.923Z,2.23
2023-06-15T05:50:27.044Z,2.97
2023-06-15T05:52:54.167Z,2.47
2023-06-15T05:55:24.682Z,1.83
2023-06-15T05:57:52.122Z,2.43
2023-06-15T06:00:20.131Z,2.37
2023-06-15T06:02:50.448Z,2.50
2023-06-15T06:05:17.908Z,2.87
2023-06-15T06:07:48.476Z,2.20
2023-06-15T06:10:19.827Z,2.37
2023-06-15T06:12:47.255Z,3.27
2023-06-15T06:15:16.807Z,2.50
2023-06-15T06:17:59.314Z,2.87
2023-06-15T06:20:30.759Z,2.30
2023-06-15T06:22:58.025Z,2.70
2023-06-15T06:25:25.580Z,2.47
2023-06-15T06:27:52.690Z,2.23
2023-06-15T06:30:19.933Z,2.50
2023-06-15T06:32:47.151Z,2.70
2023-06-15T06:35:14.646Z,2.80
2023-06-15T06:37:42.001Z,2.40
2023-06-15T06:40:10.079Z,2.60
2023-06-15T06:42:37.261Z,2.60
2023-06-15T06:45:05.088Z,2.33
2023-06-15T06:47:32.279Z,2.70
2023-06-15T06:50:02.292Z,2.85
2023-06-15T06:52:29.448Z,2.60
2023-06-15T06:54:56.602Z,2.30
2023-06-15T06:57:25.429Z,2.50
2023-06-15T06:59:54.432Z,2.40
2023-06-15T07:02:21.623Z,2.80
2023-06-15T07:04:49.483Z,2.17
2023-06-15T07:07:16.783Z,2.78
2023-06-15T07:09:43.954Z,2.70
2023-06-15T07:12:11.527Z,2.42
2023-06-15T07:14:38.738Z,2.70
2023-06-15T07:17:06.272Z,2.70
2023-06-15T07:19:33.420Z,2.75
2023-06-15T07:22:00.621Z,3.10
2023-06-15T07:24:29.227Z,2.90
2023-06-15T07:26:57.687Z,2.33
2023-06-15T07:29:26.059Z,3.13
2023-06-15T07:31:53.526Z,2.63
2023-06-15T07:34:20.811Z,2.70
2023-06-15T07:36:48.218Z,2.65
2023-06-15T07:39:15.557Z,2.65
2023-06-15T07:41:45.689Z,2.80
2023-06-15T07:44:13.677Z,2.83
2023-06-15T07:46:41.617Z,2.47
2023-06-15T07:49:08.952Z,2.58
2023-06-15T07:51:43.422Z,2.92
2023-06-15T07:54:18.640Z,2.58
2023-06-15T07:56:46.542Z,2.88
2023-06-15T07:59:15.436Z,2.97
2023-06-15T08:01:43.719Z,2.75
2023-06-15T08:04:11.135Z,2.55
2023-06-15T08:06:41.304Z,2.83
2023-06-15T08:09:08.485Z,3.00
2023-06-15T08:11:35.625Z,2.97
2023-06-15T08:14:02.942Z,2.75
2023-06-15T08:16:30.045Z,3.35
2023-06-15T08:18:57.190Z,2.58
2023-06-15T08:21:24.513Z,3.00
2023-06-15T08:23:52.080Z,2.85
2023-06-15T08:26:19.199Z,3.00
2023-06-15T08:28:54.196Z,3.13
2023-06-15T08:31:24.063Z,3.15
2023-06-15T08:33:51.352Z,2.97
2023-06-15T08:36:18.626Z,2.63
2023-06-15T08:38:46.080Z,2.88
2023-06-15T08:41:13.825Z,2.80
2023-06-15T08:43:46.492Z,2.60
2023-06-15T08:46:14.284Z,2.90
2023-06-15T08:48:44.262Z,2.60
2023-06-15T08:51:13.685Z,3.03
2023-06-15T08:53:49.131Z,3.03
2023-06-15T08:56:16.467Z,3.17
2023-06-15T08:58:50.763Z,2.60
2023-06-15T09:01:26.584Z,2.65
2023-06-15T09:03:56.366Z,2.83
2023-06-15T09:06:24.707Z,3.13
2023-06-15T09:08:55.268Z,2.97
2023-06-15T09:11:24.618Z,3.40
2023-06-15T09:13:52.210Z,2.90
2023-06-15T09:16:19.887Z,2.60
2023-06-15T09:18:54.210Z,2.80
2023-06-15T09:21:24.290Z,2.80
2023-06-15T09:23:51.854Z,2.72
2023-06-15T09:26:28.944Z,3.00
2023-06-15T09:28:58.542Z,3.03
2023-06-15T09:31:49.129Z,2.92
2023-06-15T09:34:16.292Z,2.80
2023-06-15T09:36:49.259Z,2.88
2023-06-15T09:39:24.574Z,3.03
2023-06-15T09:41:53.491Z,2.80
2023-06-15T09:44:24.532Z,3.33
2023-06-15T09:46:53.692Z,3.30
2023-06-15T09:49:27.934Z,3.10
2023-06-15T09:51:57.043Z,3.22
2023-06-15T09:54:31.858Z,3.13
2023-06-15T09:57:02.460Z,2.83
2023-06-15T09:59:29.794Z,3.22
2023-06-15T10:02:00.431Z,2.67
2023-06-15T10:04:33.045Z,2.90
2023-06-15T10:07:04.604Z,3.20
2023-06-15T10:09:46.684Z,2.67
2023-06-15T10:12:28.545Z,3.22
2023-06-15T10:15:10.259Z,3.50
2023-06-15T10:17:42.197Z,2.58
2023-06-15T10:20:18.906Z,2.78
2023-06-15T10:23:08.604Z,2.90
2023-06-15T10:25:37.455Z,2.22
2023-06-15T10:28:10.913Z,3.00
2023-06-15T10:31:08.681Z,2.90
2023-06-15T10:34:08.524Z,2.80
2023-06-15T10:36:52.921Z,3.10
2023-06-15T10:39:33.470Z,2.97
2023-06-15T10:42:06.393Z,2.97
2023-06-15T10:44:34.635Z,2.45
2023-06-15T10:47:21.231Z,2.15
2023-06-15T10:49:57.249Z,2.67
2023-06-15T10:52:34.184Z,2.15
2023-06-15T10:55:07.142Z,2.30
2023-06-15T10:57:37.281Z,2.65
2023-06-15T11:00:05.987Z,2.92
2023-06-15T11:02:33.037Z,3.30
2023-06-15T11:05:13.549Z,2.65
2023-06-15T11:07:48.386Z,2.45
2023-06-15T11:10:38.468Z,2.60
2023-06-15T11:13:07.148Z,2.80
2023-06-15T11:15:37.839Z,3.10
2023-06-15T11:18:18.756Z,2.83
2023-06-15T11:20:55.802Z,2.40
2023-06-15T11:23:25.410Z,2.83
2023-06-15T11:25:55.503Z,2.60
2023-06-15T11:28:37.611Z,2.72
2023-06-15T11:31:09.540Z,2.17
2023-06-15T11:33:43.637Z,2.40
2023-06-15T11:36:12.552Z,2.42
2023-06-15T11:38:39.783Z,2.55
2023-06-15T11:41:12.241Z,2.40
2023-06-15T11:43:50.449Z,2.13
2023-06-15T11:46:23.647Z,2.17
2023-06-15T11:48:57.275Z,2.00
2023-06-15T11:51:24.991Z,2.75
2023-06-15T11:53:54.585Z,1.90
2023-06-15T11:56:23.072Z,2.20
2023-06-15T11:58:51.444Z,2.53
2023-06-15T12:01:19.692Z,1.80
2023-06-15T12:06:22.964Z,2.40
2023-06-15T12:08:56.016Z,2.40
2023-06-15T12:11:27.156Z,2.50
2023-06-15T12:14:00.416Z,2.22
2023-06-15T12:16:27.985Z,2.15
2023-06-15T12:18:56.416Z,2.28
2023-06-15T12:21:23.768Z,2.45
2023-06-15T12:23:52.245Z,2.40
2023-06-15T12:26:21.753Z,2.42
2023-06-15T12:28:53.252Z,2.75
2023-06-15T12:31:20.370Z,2.20
2023-06-15T12:33:54.560Z,2.38
2023-06-15T12:36:23.610Z,2.60
2023-06-15T12:38:51.164Z,2.65
2023-06-15T12:41:19.469Z,2.90
2023-06-15T12:43:46.774Z,3.22
2023-06-15T12:46:14.250Z,2.88
2023-06-15T12:48:41.632Z,2.40
2023-06-15T12:51:08.774Z,2.63
2023-06-15T12:53:38.255Z,2.50
2023-06-15T12:56:06.909Z,2.50
2023-06-15T12:58:34.110Z,2.50
2023-06-15T13:01:01.603Z,2.42
2023-06-15T13:03:28.996Z,2.25
2023-06-15T13:05:56.327Z,2.20
2023-06-15T13:08:23.478Z,2.53
2023-06-15T13:10:50.652Z,2.35
2023-06-15T13:13:18.245Z,2.42
2023-06-15T13:15:46.543Z,2.55
2023-06-15T13:18:15.028Z,2.55
2023-06-15T13:20:42.328Z,2.92
2023-06-15T13:23:09.743Z,2.38
2023-06-15T13:25:36.940Z,2.42
2023-06-15T13:28:04.338Z,2.13
2023-06-15T13:30:31.468Z,2.63
2023-06-15T13:32:58.772Z,2.33
2023-06-15T13:35:26.022Z,2.30
2023-06-15T13:37:53.231Z,2.08
2023-06-15T13:40:22.773Z,2.10
2023-06-15T13:42:49.991Z,2.60
2023-06-15T13:45:19.094Z,2.65
2023-06-15T13:47:47.202Z,2.13
2023-06-15T13:50:18.365Z,2.00
2023-06-15T13:52:48.115Z,3.00
2023-06-15T13:55:17.693Z,2.65
2023-06-15T13:57:46.831Z,2.85
2023-06-15T14:00:15.836Z,3.00
2023-06-15T14:02:44.430Z,2.65
2023-06-15T14:05:13.794Z,2.45
2023-06-15T14:07:41.479Z,2.90
2023-06-15T14:10:10.048Z,3.30
2023-06-15T14:12:37.822Z,2.67
2023-06-15T14:15:07.827Z,2.80
2023-06-15T14:17:35.412Z,3.08
2023-06-15T14:20:03.771Z,3.10
2023-06-15T14:22:31.858Z,3.13
2023-06-15T14:24:59.369Z,2.83
2023-06-15T14:27:34.871Z,2.90
2023-06-15T14:30:02.282Z,2.85
2023-06-15T14:32:32.530Z,3.08
2023-06-15T14:35:02.208Z,2.60
2023-06-15T14:37:30.051Z,3.05
2023-06-15T14:39:57.392Z,2.88
2023-06-15T14:42:31.781Z,2.70
2023-06-15T14:44:59.243Z,3.08
2023-06-15T14:47:27.262Z,2.88
2023-06-15T14:49:54.737Z,2.97
2023-06-15T14:52:21.984Z,3.22
2023-06-15T14:54:49.180Z,2.53
2023-06-15T14:57:16.423Z,2.50
2023-06-15T14:59:43.775Z,2.85
2023-06-15T15:02:11.082Z,2.85
2023-06-15T15:04:38.530Z,2.25
2023-06-15T15:07:05.865Z,2.20
2023-06-15T15:09:33.002Z,2.03
2023-06-15T15:12:00.468Z,2.05
2023-06-15T15:14:27.581Z,2.25
2023-06-15T15:16:55.667Z,2.63
2023-06-15T15:19:23.117Z,1.77
2023-06-15T15:21:50.867Z,2.35
2023-06-15T15:24:18.261Z,2.13
2023-06-15T15:26:45.677Z,2.55
2023-06-15T15:29:13.178Z,1.92
2023-06-15T15:31:40.574Z,1.92
2023-06-15T15:34:08.026Z,1.90
2023-06-15T15:36:38.461Z,2.20
2023-06-15T15:39:05.970Z,1.95
2023-06-15T15:41:36.138Z,1.80
2023-06-15T15:44:03.393Z,2.30
2023-06-15T15:46:30.732Z,2.10
2023-06-15T15:48:57.900Z,2.63
2023-06-15T15:51:26.382Z,1.80
2023-06-15T15:53:53.571Z,3.20
2023-06-15T15:56:20.738Z,3.65
2023-06-15T15:58:47.932Z,2.35
2023-06-15T16:01:17.076Z,1.95
2023-06-15T16:03:44.525Z,2.20
2023-06-15T16:06:11.898Z,2.25
2023-06-15T16:08:39.113Z,1.95
2023-06-15T16:11:06.290Z,2.42
2023-06-15T16:13:33.504Z,2.33
2023-06-15T16:16:20.933Z,2.90
2023-06-15T16:18:49.505Z,2.65
2023-06-15T16:21:16.705Z,2.72
2023-06-15T16:23:47.141Z,2.78
2023-06-15T16:26:14.340Z,2.60
2023-06-15T16:28:41.588Z,2.60
2023-06-15T16:31:08.835Z,2.90
2023-06-15T16:33:35.990Z,2.60
2023-06-15T16:36:03.257Z,2.63
2023-06-15T16:38:30.476Z,2.22
2023-06-15T16:40:57.730Z,2.42
2023-06-15T16:43:24.792Z,2.67
2023-06-15T16:45:52.190Z,2.60
2023-06-15T16:48:19.393Z,3.17
2023-06-15T16:50:46.661Z,2.97
2023-06-15T16:53:14.041Z,2.38
2023-06-15T16:55:41.395Z,2.17
2023-06-15T16:58:08.584Z,2.50
2023-06-15T17:00:36.068Z,2.38
2023-06-15T17:03:03.941Z,2.42
2023-06-15T17:05:31.402Z,2.50
2023-06-15T17:07:58.508Z,2.83
2023-06-15T17:10:25.732Z,2.47
2023-06-15T17:12:52.843Z,2.78
2023-06-15T17:15:20.158Z,2.55
2023-06-15T17:17:47.397Z,2.50
2023-06-15T17:20:14.587Z,2.80
2023-06-15T17:22:42.274Z,2.60
2023-06-15T17:25:10.319Z,3.10
2023-06-15T17:27:37.698Z,2.83
2023-06-15T17:30:06.137Z,2.78
2023-06-15T17:32:33.942Z,2.70
2023-06-15T17:35:01.106Z,2.60
2023-06-15T17:37:28.272Z,3.13
2023-06-15T17:39:55.447Z,3.15
2023-06-15T17:42:22.569Z,2.58
2023-06-15T17:44:49.820Z,2.67
2023-06-15T17:47:16.960Z,2.53
2023-06-15T17:49:44.121Z,2.83
2023-06-15T17:52:11.308Z,2.75
2023-06-15T17:54:38.694Z,2.45
2023-06-15T17:57:06.287Z,3.10
2023-06-15T17:59:35.250Z,3.10
2023-06-15T18:02:03.843Z,3.17
2023-06-15T18:04:30.974Z,3.22
2023-06-15T18:06:58.100Z,3.60
2023-06-15T18:09:25.424Z,3.10
2023-06-15T18:11:52.554Z,3.30
2023-06-15T18:14:19.779Z,3.67
2023-06-15T18:16:46.978Z,3.27
2023-06-15T18:19:14.256Z,3.45
2023-06-15T18:21:41.769Z,3.17
2023-06-15T18:24:12.624Z,3.30
2023-06-15T18:26:48.354Z,3.60
2023-06-15T18:29:17.217Z,3.73
2023-06-15T18:31:45.257Z,3.17
2023-06-15T18:34:16.287Z,3.22
2023-06-15T18:36:43.992Z,3.58
2023-06-15T18:39:11.734Z,2.85
2023-06-15T18:41:39.370Z,3.17
2023-06-15T18:44:06.931Z,3.10
2023-06-15T18:46:34.195Z,3.23
2023-06-15T18:49:01.639Z,3.27
2023-06-15T18:51:29.001Z,3.50
2023-06-15T18:53:56.288Z,3.83
2023-06-15T18:56:23.894Z,3.58
2023-06-15T18:58:51.455Z,3.95
2023-06-15T19:01:18.711Z,3.53
2023-06-15T19:03:46.094Z,3.40
2023-06-15T19:06:13.382Z,4.07
2023-06-15T19:08:40.680Z,3.50
2023-06-15T19:11:09.959Z,3.93
2023-06-15T19:13:37.937Z,3.60
2023-06-15T19:16:06.224Z,3.43
2023-06-15T19:18:33.599Z,3.63
2023-06-15T19:21:03.276Z,3.30
2023-06-15T19:23:30.377Z,3.97
2023-06-15T19:25:57.607Z,4.17
2023-06-15T19:28:25.506Z,4.30
2023-06-15T19:30:52.627Z,4.53
2023-06-15T19:33:19.964Z,4.30
2023-06-15T19:35:47.122Z,4.63
2023-06-15T19:38:14.297Z,5.07
2023-06-15T19:40:41.487Z,4.77
2023-06-15T19:43:09.747Z,4.53
2023-06-15T19:45:36.887Z,4.87
2023-06-15T19:48:04.636Z,4.87
2023-06-15T19:50:32.041Z,4.60
2023-06-15T19:52:59.224Z,4.33
2023-06-15T19:55:26.408Z,4.60
2023-06-15T19:57:53.522Z,4.50
2023-06-15T20:00:21.853Z,4.40
2023-06-15T20:02:50.126Z,5.30
2023-06-15T20:05:17.309Z,5.47
2023-06-15T20:07:44.419Z,5.10
2023-06-15T20:10:12.286Z,4.87
2023-06-15T20:12:39.439Z,4.77
2023-06-15T20:15:07.555Z,4.60
2023-06-15T20:17:34.741Z,4.93
2023-06-15T20:20:01.966Z,4.50
2023-06-15T20:22:29.128Z,5.13
2023-06-15T20:24:57.568Z,4.30
2023-06-15T20:27:24.715Z,4.80
2023-06-15T20:29:51.805Z,4.90
2023-06-15T20:32:21.800Z,4.77
2023-06-15T20:34:48.893Z,5.60
2023-06-15T20:37:16.032Z,5.23
2023-06-15T20:39:46.323Z,5.10
2023-06-15T20:42:15.883Z,4.97
2023-06-15T20:44:43.039Z,5.07
2023-06-15T20:47:10.686Z,5.50
2023-06-15T20:49:38.210Z,5.50
2023-06-15T20:52:05.730Z,6.07
2023-06-15T20:54:35.233Z,5.63
2023-06-15T20:57:02.378Z,5.43
2023-06-15T20:59:29.636Z,5.40
2023-06-15T21:01:57.763Z,5.77
2023-06-15T21:04:25.632Z,6.23
2023-06-15T21:06:55.863Z,5.90
2023-06-15T21:09:25.470Z,5.80
2023-06-15T21:11:52.716Z,6.33
2023-06-15T21:14:19.900Z,5.20
2023-06-15T21:16:47.042Z,6.50
2023-06-15T21:19:14.319Z,6.20
2023-06-15T21:21:43.027Z,5.87
2023-06-15T21:24:13.962Z,5.00
2023-06-15T21:26:41.158Z,4.50
2023-06-15T21:29:08.379Z,5.53
2023-06-15T21:31:39.269Z,4.87
2023-06-15T21:34:06.549Z,4.60
2023-06-15T21:36:33.713Z,5.07
2023-06-15T21:39:00.953Z,5.50
2023-06-15T21:41:31.217Z,5.30
2023-06-15T21:43:59.086Z,5.30
2023-06-15T21:46:26.955Z,5.07
2023-06-15T21:48:54.247Z,5.50
2023-06-15T21:51:21.550Z,5.60
2023-06-15T21:53:48.857Z,6.70
2023-06-15T21:56:16.136Z,7.43
2023-06-15T21:58:43.536Z,6.60
2023-06-15T22:01:11.160Z,6.87
2023-06-15T22:03:40.091Z,5.70
2023-06-15T22:06:10.609Z,5.67
2023-06-15T22:08:37.763Z,6.07
2023-06-15T22:11:05.278Z,5.87
2023-06-15T22:13:35.502Z,6.20
2023-06-15T22:16:02.840Z,6.57
2023-06-15T22:18:30.880Z,6.60
2023-06-15T22:20:58.763Z,5.90
2023-06-15T22:23:27.815Z,6.60
2023-06-15T22:25:56.778Z,7.63
2023-06-15T22:28:25.365Z,7.63
2023-06-15T22:30:53.037Z,6.63
2023-06-15T22:33:24.452Z,6.90
2023-06-15T22:35:52.020Z,5.80
2023-06-15T22:38:19.191Z,5.97
2023-06-15T22:40:46.581Z,6.40
2023-06-15T22:43:13.957Z,8.60
2023-06-15T22:45:41.203Z,9.17
2023-06-15T22:48:08.423Z,8.73
2023-06-15T22:50:35.643Z,7.97
2023-06-15T22:53:03.332Z,8.50
2023-06-15T22:55:31.302Z,8.57
2023-06-15T22:57:58.867Z,7.97
2023-06-15T23:00:26.172Z,8.57
2023-06-15T23:02:53.362Z,7.87
2023-06-15T23:05:23.811Z,8.63
2023-06-15T23:07:52.493Z,8.67
2023-06-15T23:10:21.783Z,8.40
2023-06-15T23:12:51.461Z,8.83
2023-06-15T23:15:22.894Z,10.07
2023-06-15T23:17:53.376Z,9.97
2023-06-15T23:20:21.292Z,10.53
2023-06-15T23:22:52.991Z,10.70
2023-06-15T23:25:23.989Z,10.03
2023-06-15T23:27:55.134Z,10.03
2023-06-15T23:30:25.093Z,8.47
2023-06-15T23:32:52.290Z,7.23
2023-06-15T23:35:19.468Z,9.23
2023-06-15T23:37:46.606Z,8.47
2023-06-15T23:40:13.909Z,8.87
2023-06-15T23:42:41.042Z,8.63
2023-06-15T23:45:08.736Z,8.63
2023-06-15T23:47:35.886Z,9.10
2023-06-15T23:50:06.488Z,9.37
2023-06-15T23:52:33.592Z,9.53
2023-06-15T23:55:00.702Z,10.00
2023-06-15T23:57:27.837Z,8.93
2023-06-15T23:59:54.976Z,10.73
